青島 の空港の天気 - METARとTAF

青島流亭国際空港 ( ZSQD / TAO ) - 中国 山東省青島市
飛行場実況気象(Metar)
観測時間06/16 16:00 CST (06/16 08:00 UTC)
風向・風速南 4m/s
視程10km以上
天気現象
なし
気温24℃
湿度54%
気圧1008hPa
METARZSQD 160800Z 18004MPS 150V210 CAVOK 24/14 Q1008 NOSIG
過去の天気等 Google飛行場航空写真 Wunderground天気予報

過去48時間のMETAR

飛行場予報(TAF)
発表時間: 6/16 11:08 CST (6/16 03:08 UTC)
予報対象時間: 16日14時 CST ~ 17日14時 CST
風向・風速南 4m/s
視程10km以上
なし
TAF ZSQD 160308Z 1606/1706 18004MPS CAVOK TX30/1705Z TN18/1621Z